Soul City, North Carolina
Current Conditions -  °F | °C
As of 2:55 PM on Wednesday 17 Dec 2014 (Local Time) from KHNZ Reporting Station
Clear Clear  
Wind Chill: 57°   Ceiling: Unl
Heat Index: 57°   Visibility: 10mi
Dew Point: 32°   Wind: 7mph
Humidity: 40%   Direction: 310°NW
Pressure: 30.02"   Gusts: NA
Location:  36.4679°N, 78.2938°W
Report Text: KHNZ 171955Z AUTO 31006KT 10SM CLR 14/00 A3002 RMK AO2 T01370002
Loading
Personal Weather Stations






























Interactive Weather Map New forecast layout! Learn more

10-Day Weather Forecast

Advertisements
Track Severe Weather on mobile